sensor_id;sensor_type;location;lat;lon;timestamp;P1;durP1;ratioP1;P2;durP2;ratioP2
53409;SDS011;66590;50.734;4.246;2023-06-22T00:00:08;5.47;;;3.28;;
53409;SDS011;66590;50.734;4.246;2023-06-22T00:02:37;5.15;;;3.67;;
53409;SDS011;66590;50.734;4.246;2023-06-22T00:05:05;8.07;;;3.85;;
53409;SDS011;66590;50.734;4.246;2023-06-22T00:07:33;6.68;;;3.88;;
53409;SDS011;66590;50.734;4.246;2023-06-22T00:10:00;6.72;;;4.00;;
53409;SDS011;66590;50.734;4.246;2023-06-22T00:12:29;6.25;;;3.92;;
53409;SDS011;66590;50.734;4.246;2023-06-22T00:14:56;5.88;;;4.07;;
53409;SDS011;66590;50.734;4.246;2023-06-22T00:17:24;4.85;;;3.85;;
53409;SDS011;66590;50.734;4.246;2023-06-22T00:19:52;4.68;;;3.40;;
53409;SDS011;66590;50.734;4.246;2023-06-22T00:22:20;6.53;;;4.03;;
53409;SDS011;66590;50.734;4.246;2023-06-22T00:24:48;5.90;;;3.88;;
53409;SDS011;66590;50.734;4.246;2023-06-22T00:27:15;7.30;;;3.95;;
53409;SDS011;66590;50.734;4.246;2023-06-22T00:29:42;5.88;;;4.28;;
53409;SDS011;66590;50.734;4.246;2023-06-22T00:32:09;5.05;;;4.18;;
53409;SDS011;66590;50.734;4.246;2023-06-22T00:34:36;4.97;;;4.40;;
53409;SDS011;66590;50.734;4.246;2023-06-22T00:37:05;4.78;;;3.63;;
53409;SDS011;66590;50.734;4.246;2023-06-22T00:39:32;6.35;;;4.25;;
53409;SDS011;66590;50.734;4.246;2023-06-22T00:41:59;5.97;;;3.72;;
53409;SDS011;66590;50.734;4.246;2023-06-22T00:44:27;6.55;;;3.95;;
53409;SDS011;66590;50.734;4.246;2023-06-22T00:46:54;4.35;;;3.70;;
53409;SDS011;66590;50.734;4.246;2023-06-22T00:49:21;6.18;;;4.05;;
53409;SDS011;66590;50.734;4.246;2023-06-22T00:51:49;7.10;;;4.10;;
53409;SDS011;66590;50.734;4.246;2023-06-22T00:54:17;4.35;;;3.83;;
53409;SDS011;66590;50.734;4.246;2023-06-22T00:56:45;7.50;;;4.47;;
53409;SDS011;66590;50.734;4.246;2023-06-22T00:59:12;5.45;;;4.10;;
53409;SDS011;66590;50.734;4.246;2023-06-22T01:01:39;7.60;;;4.40;;
53409;SDS011;66590;50.734;4.246;2023-06-22T01:04:07;5.40;;;4.00;;
53409;SDS011;66590;50.734;4.246;2023-06-22T01:06:35;5.80;;;4.45;;
53409;SDS011;66590;50.734;4.246;2023-06-22T01:09:08;5.53;;;4.00;;
53409;SDS011;66590;50.734;4.246;2023-06-22T01:14:15;4.35;;;3.95;;
53409;SDS011;66590;50.734;4.246;2023-06-22T01:16:49;4.50;;;4.05;;
53409;SDS011;66590;50.734;4.246;2023-06-22T01:19:29;5.18;;;3.50;;
53409;SDS011;66590;50.734;4.246;2023-06-22T01:22:04;6.40;;;4.30;;
53409;SDS011;66590;50.734;4.246;2023-06-22T01:24:33;5.95;;;4.35;;
53409;SDS011;66590;50.734;4.246;2023-06-22T01:27:13;8.57;;;4.15;;
53409;SDS011;66590;50.734;4.246;2023-06-22T01:29:55;5.05;;;4.03;;
53409;SDS011;66590;50.734;4.246;2023-06-22T01:32:23;4.80;;;3.75;;
53409;SDS011;66590;50.734;4.246;2023-06-22T01:34:51;4.60;;;3.70;;
53409;SDS011;66590;50.734;4.246;2023-06-22T01:37:18;4.30;;;3.50;;
53409;SDS011;66590;50.734;4.246;2023-06-22T01:39:49;5.50;;;3.85;;
53409;SDS011;66590;50.734;4.246;2023-06-22T01:42:17;4.38;;;3.72;;
53409;SDS011;66590;50.734;4.246;2023-06-22T01:44:45;6.75;;;4.82;;
53409;SDS011;66590;50.734;4.246;2023-06-22T01:47:14;6.55;;;4.28;;
53409;SDS011;66590;50.734;4.246;2023-06-22T01:49:42;4.32;;;3.90;;
53409;SDS011;66590;50.734;4.246;2023-06-22T01:52:09;5.00;;;4.25;;
53409;SDS011;66590;50.734;4.246;2023-06-22T01:54:37;5.15;;;4.57;;
53409;SDS011;66590;50.734;4.246;2023-06-22T01:57:06;4.55;;;4.13;;
53409;SDS011;66590;50.734;4.246;2023-06-22T01:59:34;5.43;;;3.90;;
53409;SDS011;66590;50.734;4.246;2023-06-22T02:02:05;4.45;;;4.03;;
53409;SDS011;66590;50.734;4.246;2023-06-22T02:04:38;6.07;;;4.00;;
53409;SDS011;66590;50.734;4.246;2023-06-22T02:07:12;6.33;;;3.90;;
53409;SDS011;66590;50.734;4.246;2023-06-22T02:09:40;6.65;;;4.22;;
53409;SDS011;66590;50.734;4.246;2023-06-22T02:12:12;7.18;;;4.38;;
53409;SDS011;66590;50.734;4.246;2023-06-22T02:14:43;5.70;;;4.63;;
53409;SDS011;66590;50.734;4.246;2023-06-22T02:17:11;5.45;;;4.30;;
53409;SDS011;66590;50.734;4.246;2023-06-22T02:19:42;5.28;;;3.95;;
53409;SDS011;66590;50.734;4.246;2023-06-22T02:22:09;5.10;;;4.40;;
53409;SDS011;66590;50.734;4.246;2023-06-22T02:24:36;4.95;;;3.90;;
53409;SDS011;66590;50.734;4.246;2023-06-22T02:27:04;4.70;;;3.80;;
53409;SDS011;66590;50.734;4.246;2023-06-22T02:29:34;5.35;;;3.80;;
53409;SDS011;66590;50.734;4.246;2023-06-22T02:32:01;5.68;;;3.80;;
53409;SDS011;66590;50.734;4.246;2023-06-22T02:34:29;3.78;;;3.40;;
53409;SDS011;66590;50.734;4.246;2023-06-22T02:36:58;4.28;;;3.70;;
53409;SDS011;66590;50.734;4.246;2023-06-22T02:39:25;5.63;;;4.00;;
53409;SDS011;66590;50.734;4.246;2023-06-22T02:41:53;5.22;;;4.05;;
53409;SDS011;66590;50.734;4.246;2023-06-22T02:44:21;5.03;;;4.30;;
53409;SDS011;66590;50.734;4.246;2023-06-22T02:46:48;4.40;;;4.00;;
53409;SDS011;66590;50.734;4.246;2023-06-22T02:49:16;6.07;;;4.45;;
53409;SDS011;66590;50.734;4.246;2023-06-22T02:51:45;5.20;;;4.45;;
53409;SDS011;66590;50.734;4.246;2023-06-22T02:54:14;6.90;;;4.28;;
53409;SDS011;66590;50.734;4.246;2023-06-22T02:56:42;5.57;;;4.68;;
53409;SDS011;66590;50.734;4.246;2023-06-22T02:59:12;5.93;;;4.20;;
53409;SDS011;66590;50.734;4.246;2023-06-22T03:01:39;6.75;;;4.32;;
53409;SDS011;66590;50.734;4.246;2023-06-22T03:04:07;5.57;;;4.80;;
53409;SDS011;66590;50.734;4.246;2023-06-22T03:06:35;5.57;;;5.03;;
53409;SDS011;66590;50.734;4.246;2023-06-22T03:09:04;7.30;;;5.65;;
53409;SDS011;66590;50.734;4.246;2023-06-22T03:11:33;6.88;;;5.70;;
53409;SDS011;66590;50.734;4.246;2023-06-22T03:14:01;7.65;;;6.15;;
53409;SDS011;66590;50.734;4.246;2023-06-22T03:16:28;9.05;;;7.20;;
53409;SDS011;66590;50.734;4.246;2023-06-22T03:18:58;6.68;;;5.97;;
53409;SDS011;66590;50.734;4.246;2023-06-22T03:21:27;8.63;;;6.50;;
53409;SDS011;66590;50.734;4.246;2023-06-22T03:23:55;7.45;;;6.07;;
53409;SDS011;66590;50.734;4.246;2023-06-22T03:26:22;8.25;;;6.00;;
53409;SDS011;66590;50.734;4.246;2023-06-22T03:28:51;8.48;;;5.60;;
53409;SDS011;66590;50.734;4.246;2023-06-22T03:31:18;6.82;;;5.80;;
53409;SDS011;66590;50.734;4.246;2023-06-22T03:33:46;10.52;;;5.40;;
53409;SDS011;66590;50.734;4.246;2023-06-22T03:36:13;8.05;;;6.20;;
53409;SDS011;66590;50.734;4.246;2023-06-22T03:38:40;7.75;;;6.13;;
53409;SDS011;66590;50.734;4.246;2023-06-22T03:41:08;7.93;;;5.43;;
53409;SDS011;66590;50.734;4.246;2023-06-22T03:43:35;7.32;;;5.18;;
53409;SDS011;66590;50.734;4.246;2023-06-22T03:46:04;8.82;;;6.10;;
53409;SDS011;66590;50.734;4.246;2023-06-22T03:48:35;9.38;;;5.82;;
53409;SDS011;66590;50.734;4.246;2023-06-22T03:51:02;12.95;;;7.60;;
53409;SDS011;66590;50.734;4.246;2023-06-22T03:53:30;9.70;;;8.20;;
53409;SDS011;66590;50.734;4.246;2023-06-22T03:55:57;11.20;;;8.05;;
53409;SDS011;66590;50.734;4.246;2023-06-22T03:58:24;9.57;;;7.90;;
53409;SDS011;66590;50.734;4.246;2023-06-22T04:00:52;10.85;;;7.82;;
53409;SDS011;66590;50.734;4.246;2023-06-22T04:03:21;14.57;;;8.43;;
53409;SDS011;66590;50.734;4.246;2023-06-22T04:05:48;9.73;;;7.50;;
53409;SDS011;66590;50.734;4.246;2023-06-22T04:08:16;11.60;;;8.45;;
53409;SDS011;66590;50.734;4.246;2023-06-22T04:10:44;10.73;;;7.60;;
53409;SDS011;66590;50.734;4.246;2023-06-22T04:13:11;9.73;;;7.65;;
53409;SDS011;66590;50.734;4.246;2023-06-22T04:15:39;11.35;;;7.45;;
53409;SDS011;66590;50.734;4.246;2023-06-22T04:18:08;8.95;;;6.38;;
53409;SDS011;66590;50.734;4.246;2023-06-22T04:20:37;6.05;;;5.45;;
53409;SDS011;66590;50.734;4.246;2023-06-22T04:23:04;6.63;;;4.90;;
53409;SDS011;66590;50.734;4.246;2023-06-22T04:25:31;11.18;;;5.80;;
53409;SDS011;66590;50.734;4.246;2023-06-22T04:27:58;7.57;;;4.97;;
53409;SDS011;66590;50.734;4.246;2023-06-22T04:30:25;7.22;;;5.18;;
53409;SDS011;66590;50.734;4.246;2023-06-22T04:32:53;8.13;;;5.07;;
53409;SDS011;66590;50.734;4.246;2023-06-22T04:35:21;8.07;;;5.15;;
53409;SDS011;66590;50.734;4.246;2023-06-22T04:37:50;6.47;;;4.93;;
53409;SDS011;66590;50.734;4.246;2023-06-22T04:40:17;6.55;;;4.57;;
53409;SDS011;66590;50.734;4.246;2023-06-22T04:42:45;6.38;;;5.10;;
53409;SDS011;66590;50.734;4.246;2023-06-22T04:45:12;6.35;;;5.68;;
53409;SDS011;66590;50.734;4.246;2023-06-22T04:47:43;8.57;;;5.65;;
53409;SDS011;66590;50.734;4.246;2023-06-22T04:50:11;7.60;;;5.80;;
53409;SDS011;66590;50.734;4.246;2023-06-22T04:52:38;6.50;;;5.30;;
53409;SDS011;66590;50.734;4.246;2023-06-22T04:55:08;6.13;;;5.40;;
53409;SDS011;66590;50.734;4.246;2023-06-22T04:57:35;6.90;;;5.55;;
53409;SDS011;66590;50.734;4.246;2023-06-22T05:00:03;7.40;;;5.95;;
53409;SDS011;66590;50.734;4.246;2023-06-22T05:02:31;7.65;;;6.88;;
53409;SDS011;66590;50.734;4.246;2023-06-22T05:04:58;8.80;;;6.70;;
53409;SDS011;66590;50.734;4.246;2023-06-22T05:07:25;10.32;;;7.38;;
53409;SDS011;66590;50.734;4.246;2023-06-22T05:09:53;7.50;;;6.80;;
53409;SDS011;66590;50.734;4.246;2023-06-22T05:12:22;12.70;;;8.70;;
53409;SDS011;66590;50.734;4.246;2023-06-22T05:14:49;11.60;;;9.10;;
53409;SDS011;66590;50.734;4.246;2023-06-22T05:17:16;29.48;;;10.02;;
53409;SDS011;66590;50.734;4.246;2023-06-22T05:19:43;13.40;;;9.45;;
53409;SDS011;66590;50.734;4.246;2023-06-22T05:22:11;46.88;;;15.98;;
53409;SDS011;66590;50.734;4.246;2023-06-22T05:24:40;14.27;;;10.30;;
53409;SDS011;66590;50.734;4.246;2023-06-22T05:27:08;14.75;;;9.80;;
53409;SDS011;66590;50.734;4.246;2023-06-22T05:29:37;12.00;;;9.20;;
53409;SDS011;66590;50.734;4.246;2023-06-22T05:32:04;13.18;;;9.70;;
53409;SDS011;66590;50.734;4.246;2023-06-22T05:34:32;12.95;;;9.70;;
53409;SDS011;66590;50.734;4.246;2023-06-22T05:37:00;18.08;;;10.32;;
53409;SDS011;66590;50.734;4.246;2023-06-22T05:39:27;10.65;;;9.23;;
53409;SDS011;66590;50.734;4.246;2023-06-22T05:41:54;12.05;;;9.73;;
53409;SDS011;66590;50.734;4.246;2023-06-22T05:44:21;10.38;;;9.15;;
53409;SDS011;66590;50.734;4.246;2023-06-22T05:46:50;12.93;;;10.30;;
53409;SDS011;66590;50.734;4.246;2023-06-22T05:49:17;10.93;;;8.90;;
53409;SDS011;66590;50.734;4.246;2023-06-22T05:51:44;14.93;;;10.52;;
53409;SDS011;66590;50.734;4.246;2023-06-22T05:54:11;9.88;;;8.88;;
53409;SDS011;66590;50.734;4.246;2023-06-22T05:56:39;10.80;;;9.30;;
53409;SDS011;66590;50.734;4.246;2023-06-22T05:59:06;10.05;;;9.00;;
53409;SDS011;66590;50.734;4.246;2023-06-22T06:01:34;12.60;;;9.90;;
53409;SDS011;66590;50.734;4.246;2023-06-22T06:04:03;13.07;;;11.73;;
53409;SDS011;66590;50.734;4.246;2023-06-22T06:06:31;16.45;;;12.13;;
53409;SDS011;66590;50.734;4.246;2023-06-22T06:08:58;14.07;;;12.57;;
53409;SDS011;66590;50.734;4.246;2023-06-22T06:11:25;13.70;;;12.30;;
53409;SDS011;66590;50.734;4.246;2023-06-22T06:13:53;14.90;;;12.43;;
53409;SDS011;66590;50.734;4.246;2023-06-22T06:16:20;13.75;;;11.60;;
53409;SDS011;66590;50.734;4.246;2023-06-22T06:18:47;16.80;;;13.65;;
53409;SDS011;66590;50.734;4.246;2023-06-22T06:21:15;15.88;;;13.63;;
53409;SDS011;66590;50.734;4.246;2023-06-22T06:23:43;15.48;;;13.82;;
53409;SDS011;66590;50.734;4.246;2023-06-22T06:26:13;19.77;;;15.57;;
53409;SDS011;66590;50.734;4.246;2023-06-22T06:28:43;16.08;;;14.27;;
53409;SDS011;66590;50.734;4.246;2023-06-22T06:31:12;17.42;;;14.25;;
53409;SDS011;66590;50.734;4.246;2023-06-22T06:33:39;16.88;;;13.57;;
53409;SDS011;66590;50.734;4.246;2023-06-22T06:36:06;16.23;;;14.00;;
53409;SDS011;66590;50.734;4.246;2023-06-22T06:38:38;19.73;;;14.50;;
53409;SDS011;66590;50.734;4.246;2023-06-22T06:41:05;17.73;;;15.05;;
53409;SDS011;66590;50.734;4.246;2023-06-22T06:43:36;19.83;;;16.55;;
53409;SDS011;66590;50.734;4.246;2023-06-22T06:46:03;20.60;;;18.40;;
53409;SDS011;66590;50.734;4.246;2023-06-22T06:48:31;20.75;;;17.52;;
53409;SDS011;66590;50.734;4.246;2023-06-22T06:50:58;21.45;;;18.33;;
53409;SDS011;66590;50.734;4.246;2023-06-22T06:53:26;22.83;;;19.38;;
53409;SDS011;66590;50.734;4.246;2023-06-22T06:55:54;24.95;;;19.98;;
53409;SDS011;66590;50.734;4.246;2023-06-22T06:58:22;22.75;;;19.15;;
53409;SDS011;66590;50.734;4.246;2023-06-22T07:00:49;23.90;;;19.63;;
53409;SDS011;66590;50.734;4.246;2023-06-22T07:03:17;22.90;;;20.35;;
53409;SDS011;66590;50.734;4.246;2023-06-22T07:05:44;25.80;;;21.38;;
53409;SDS011;66590;50.734;4.246;2023-06-22T07:08:11;25.77;;;20.17;;
53409;SDS011;66590;50.734;4.246;2023-06-22T07:10:39;21.13;;;18.95;;
53409;SDS011;66590;50.734;4.246;2023-06-22T07:13:07;22.40;;;19.80;;
53409;SDS011;66590;50.734;4.246;2023-06-22T07:15:35;22.92;;;19.20;;
53409;SDS011;66590;50.734;4.246;2023-06-22T07:18:04;21.65;;;18.65;;
53409;SDS011;66590;50.734;4.246;2023-06-22T07:20:31;21.23;;;18.75;;
53409;SDS011;66590;50.734;4.246;2023-06-22T07:22:59;22.92;;;19.40;;
53409;SDS011;66590;50.734;4.246;2023-06-22T07:25:26;23.67;;;19.13;;
53409;SDS011;66590;50.734;4.246;2023-06-22T07:27:59;21.55;;;19.35;;
53409;SDS011;66590;50.734;4.246;2023-06-22T07:30:29;22.98;;;19.60;;
53409;SDS011;66590;50.734;4.246;2023-06-22T07:32:57;21.13;;;18.88;;
53409;SDS011;66590;50.734;4.246;2023-06-22T07:35:25;21.52;;;19.25;;
53409;SDS011;66590;50.734;4.246;2023-06-22T07:37:52;28.23;;;20.15;;
53409;SDS011;66590;50.734;4.246;2023-06-22T07:40:20;23.33;;;20.38;;
53409;SDS011;66590;50.734;4.246;2023-06-22T07:42:47;24.30;;;19.65;;
53409;SDS011;66590;50.734;4.246;2023-06-22T07:45:18;21.30;;;18.73;;
53409;SDS011;66590;50.734;4.246;2023-06-22T07:47:46;21.85;;;18.50;;
53409;SDS011;66590;50.734;4.246;2023-06-22T07:50:14;21.80;;;19.08;;
53409;SDS011;66590;50.734;4.246;2023-06-22T07:52:41;22.13;;;18.27;;
53409;SDS011;66590;50.734;4.246;2023-06-22T07:55:09;21.27;;;18.45;;
53409;SDS011;66590;50.734;4.246;2023-06-22T07:57:36;23.83;;;19.23;;
53409;SDS011;66590;50.734;4.246;2023-06-22T08:00:04;21.05;;;18.58;;
53409;SDS011;66590;50.734;4.246;2023-06-22T08:02:32;20.63;;;17.38;;
53409;SDS011;66590;50.734;4.246;2023-06-22T08:05:01;21.67;;;18.23;;
53409;SDS011;66590;50.734;4.246;2023-06-22T08:07:46;23.95;;;17.60;;
53409;SDS011;66590;50.734;4.246;2023-06-22T08:10:14;21.08;;;17.42;;
53409;SDS011;66590;50.734;4.246;2023-06-22T08:12:42;20.30;;;17.20;;
53409;SDS011;66590;50.734;4.246;2023-06-22T08:15:09;20.42;;;16.67;;
53409;SDS011;66590;50.734;4.246;2023-06-22T08:17:37;20.30;;;16.70;;
53409;SDS011;66590;50.734;4.246;2023-06-22T08:20:06;18.25;;;16.33;;
53409;SDS011;66590;50.734;4.246;2023-06-22T08:22:35;19.23;;;16.27;;
53409;SDS011;66590;50.734;4.246;2023-06-22T08:25:02;19.20;;;15.73;;
53409;SDS011;66590;50.734;4.246;2023-06-22T08:27:30;20.92;;;15.75;;
53409;SDS011;66590;50.734;4.246;2023-06-22T08:29:58;17.08;;;14.88;;
53409;SDS011;66590;50.734;4.246;2023-06-22T08:32:26;17.73;;;15.90;;
53409;SDS011;66590;50.734;4.246;2023-06-22T08:34:54;17.13;;;15.40;;
53409;SDS011;66590;50.734;4.246;2023-06-22T08:37:23;16.90;;;14.93;;
53409;SDS011;66590;50.734;4.246;2023-06-22T08:39:51;19.85;;;14.77;;
53409;SDS011;66590;50.734;4.246;2023-06-22T08:42:18;19.00;;;14.13;;
53409;SDS011;66590;50.734;4.246;2023-06-22T08:44:45;18.60;;;15.05;;
53409;SDS011;66590;50.734;4.246;2023-06-22T08:47:12;18.20;;;14.45;;
53409;SDS011;66590;50.734;4.246;2023-06-22T08:49:39;18.23;;;15.35;;
53409;SDS011;66590;50.734;4.246;2023-06-22T08:52:07;17.98;;;14.95;;
53409;SDS011;66590;50.734;4.246;2023-06-22T08:54:36;17.52;;;15.57;;
53409;SDS011;66590;50.734;4.246;2023-06-22T08:57:04;19.55;;;15.88;;
53409;SDS011;66590;50.734;4.246;2023-06-22T08:59:32;18.88;;;15.93;;
53409;SDS011;66590;50.734;4.246;2023-06-22T09:01:59;22.02;;;15.18;;
53409;SDS011;66590;50.734;4.246;2023-06-22T09:04:26;18.73;;;16.45;;
53409;SDS011;66590;50.734;4.246;2023-06-22T09:06:56;19.05;;;15.93;;
53409;SDS011;66590;50.734;4.246;2023-06-22T09:09:23;20.77;;;16.45;;
53409;SDS011;66590;50.734;4.246;2023-06-22T09:11:51;20.40;;;15.63;;
53409;SDS011;66590;50.734;4.246;2023-06-22T09:14:19;21.30;;;16.90;;
53409;SDS011;66590;50.734;4.246;2023-06-22T09:16:46;18.48;;;15.85;;
53409;SDS011;66590;50.734;4.246;2023-06-22T09:19:13;24.52;;;17.45;;
53409;SDS011;66590;50.734;4.246;2023-06-22T09:21:41;18.73;;;16.80;;
53409;SDS011;66590;50.734;4.246;2023-06-22T09:24:08;20.65;;;17.00;;
53409;SDS011;66590;50.734;4.246;2023-06-22T09:26:36;23.40;;;18.52;;
53409;SDS011;66590;50.734;4.246;2023-06-22T09:29:05;19.88;;;17.77;;
53409;SDS011;66590;50.734;4.246;2023-06-22T09:31:33;23.25;;;19.70;;
53409;SDS011;66590;50.734;4.246;2023-06-22T09:34:00;24.50;;;20.80;;
53409;SDS011;66590;50.734;4.246;2023-06-22T09:36:27;27.02;;;19.60;;
53409;SDS011;66590;50.734;4.246;2023-06-22T09:38:54;23.85;;;18.48;;
53409;SDS011;66590;50.734;4.246;2023-06-22T09:41:22;30.50;;;21.35;;
53409;SDS011;66590;50.734;4.246;2023-06-22T09:43:49;22.58;;;19.70;;
53409;SDS011;66590;50.734;4.246;2023-06-22T09:46:23;25.30;;;22.10;;
53409;SDS011;66590;50.734;4.246;2023-06-22T09:48:51;22.73;;;20.33;;
53409;SDS011;66590;50.734;4.246;2023-06-22T09:51:18;27.73;;;22.65;;
53409;SDS011;66590;50.734;4.246;2023-06-22T09:53:48;29.45;;;22.98;;
53409;SDS011;66590;50.734;4.246;2023-06-22T09:56:15;29.65;;;24.60;;
53409;SDS011;66590;50.734;4.246;2023-06-22T09:58:42;29.98;;;23.90;;
53409;SDS011;66590;50.734;4.246;2023-06-22T10:01:10;29.65;;;25.40;;
53409;SDS011;66590;50.734;4.246;2023-06-22T10:03:39;27.15;;;24.05;;
53409;SDS011;66590;50.734;4.246;2023-06-22T10:06:07;29.25;;;25.70;;
53409;SDS011;66590;50.734;4.246;2023-06-22T10:08:34;31.65;;;27.10;;
53409;SDS011;66590;50.734;4.246;2023-06-22T10:11:02;29.00;;;25.40;;
53409;SDS011;66590;50.734;4.246;2023-06-22T10:13:29;30.50;;;26.35;;
53409;SDS011;66590;50.734;4.246;2023-06-22T10:15:57;25.85;;;22.95;;
53409;SDS011;66590;50.734;4.246;2023-06-22T10:18:24;31.10;;;25.65;;
53409;SDS011;66590;50.734;4.246;2023-06-22T10:20:52;34.80;;;28.25;;
53409;SDS011;66590;50.734;4.246;2023-06-22T10:23:19;32.40;;;27.25;;
53409;SDS011;66590;50.734;4.246;2023-06-22T10:25:50;28.17;;;25.13;;
53409;SDS011;66590;50.734;4.246;2023-06-22T10:28:17;27.92;;;24.88;;
53409;SDS011;66590;50.734;4.246;2023-06-22T10:30:45;28.15;;;25.17;;
53409;SDS011;66590;50.734;4.246;2023-06-22T10:33:12;29.00;;;25.98;;
53409;SDS011;66590;50.734;4.246;2023-06-22T10:35:39;29.63;;;26.48;;
53409;SDS011;66590;50.734;4.246;2023-06-22T10:38:08;28.98;;;25.83;;
53409;SDS011;66590;50.734;4.246;2023-06-22T10:40:35;31.55;;;26.92;;
53409;SDS011;66590;50.734;4.246;2023-06-22T10:43:02;32.25;;;28.40;;
53409;SDS011;66590;50.734;4.246;2023-06-22T10:45:29;30.13;;;26.60;;
53409;SDS011;66590;50.734;4.246;2023-06-22T10:47:57;29.88;;;26.40;;
53409;SDS011;66590;50.734;4.246;2023-06-22T10:50:24;28.95;;;25.85;;
53409;SDS011;66590;50.734;4.246;2023-06-22T10:52:53;25.98;;;23.08;;
53409;SDS011;66590;50.734;4.246;2023-06-22T10:55:25;26.63;;;23.23;;
53409;SDS011;66590;50.734;4.246;2023-06-22T10:57:54;27.50;;;24.55;;
53409;SDS011;66590;50.734;4.246;2023-06-22T11:00:22;26.63;;;23.77;;
53409;SDS011;66590;50.734;4.246;2023-06-22T11:02:49;27.70;;;24.40;;
53409;SDS011;66590;50.734;4.246;2023-06-22T11:05:16;27.25;;;23.73;;
53409;SDS011;66590;50.734;4.246;2023-06-22T11:07:44;28.55;;;25.48;;
53409;SDS011;66590;50.734;4.246;2023-06-22T11:10:12;29.15;;;25.38;;
53409;SDS011;66590;50.734;4.246;2023-06-22T11:12:41;25.35;;;22.63;;
53409;SDS011;66590;50.734;4.246;2023-06-22T11:15:09;27.70;;;24.73;;
53409;SDS011;66590;50.734;4.246;2023-06-22T11:17:36;29.05;;;26.05;;
53409;SDS011;66590;50.734;4.246;2023-06-22T11:20:04;29.50;;;26.38;;
53409;SDS011;66590;50.734;4.246;2023-06-22T11:22:33;29.92;;;26.73;;
53409;SDS011;66590;50.734;4.246;2023-06-22T11:25:00;30.88;;;27.58;;
53409;SDS011;66590;50.734;4.246;2023-06-22T11:27:27;30.00;;;26.92;;
53409;SDS011;66590;50.734;4.246;2023-06-22T11:29:56;31.98;;;28.63;;
53409;SDS011;66590;50.734;4.246;2023-06-22T11:32:23;38.30;;;29.17;;
53409;SDS011;66590;50.734;4.246;2023-06-22T11:34:51;32.67;;;29.08;;
53409;SDS011;66590;50.734;4.246;2023-06-22T11:37:18;31.67;;;28.38;;
53409;SDS011;66590;50.734;4.246;2023-06-22T11:39:46;33.03;;;29.13;;
53409;SDS011;66590;50.734;4.246;2023-06-22T11:42:25;35.03;;;29.83;;
53409;SDS011;66590;50.734;4.246;2023-06-22T11:44:52;34.25;;;30.63;;
53409;SDS011;66590;50.734;4.246;2023-06-22T11:47:21;38.78;;;32.05;;
53409;SDS011;66590;50.734;4.246;2023-06-22T11:49:48;34.10;;;30.52;;
53409;SDS011;66590;50.734;4.246;2023-06-22T11:52:15;36.38;;;31.67;;
53409;SDS011;66590;50.734;4.246;2023-06-22T11:54:43;35.13;;;31.48;;
53409;SDS011;66590;50.734;4.246;2023-06-22T11:57:10;36.50;;;31.38;;
53409;SDS011;66590;50.734;4.246;2023-06-22T11:59:37;34.47;;;30.88;;
53409;SDS011;66590;50.734;4.246;2023-06-22T12:02:05;34.92;;;30.15;;
53409;SDS011;66590;50.734;4.246;2023-06-22T12:04:34;34.53;;;30.60;;
53409;SDS011;66590;50.734;4.246;2023-06-22T12:07:01;36.10;;;32.22;;
53409;SDS011;66590;50.734;4.246;2023-06-22T12:09:29;33.60;;;30.10;;
53409;SDS011;66590;50.734;4.246;2023-06-22T12:11:56;34.42;;;29.85;;
53409;SDS011;66590;50.734;4.246;2023-06-22T12:14:23;31.95;;;28.55;;
53409;SDS011;66590;50.734;4.246;2023-06-22T12:16:50;32.10;;;28.52;;
53409;SDS011;66590;50.734;4.246;2023-06-22T12:19:19;34.45;;;30.38;;
53409;SDS011;66590;50.734;4.246;2023-06-22T12:21:50;32.88;;;29.35;;
53409;SDS011;66590;50.734;4.246;2023-06-22T12:24:18;32.17;;;28.83;;
53409;SDS011;66590;50.734;4.246;2023-06-22T12:26:48;34.22;;;30.65;;
53409;SDS011;66590;50.734;4.246;2023-06-22T12:29:18;34.45;;;30.20;;
53409;SDS011;66590;50.734;4.246;2023-06-22T12:31:46;36.05;;;31.40;;
53409;SDS011;66590;50.734;4.246;2023-06-22T12:34:13;35.28;;;31.50;;
53409;SDS011;66590;50.734;4.246;2023-06-22T12:36:40;34.60;;;30.95;;
53409;SDS011;66590;50.734;4.246;2023-06-22T12:39:09;35.85;;;32.05;;
53409;SDS011;66590;50.734;4.246;2023-06-22T12:41:39;34.58;;;30.48;;
53409;SDS011;66590;50.734;4.246;2023-06-22T12:44:06;34.70;;;30.33;;
53409;SDS011;66590;50.734;4.246;2023-06-22T12:46:34;37.60;;;33.17;;
53409;SDS011;66590;50.734;4.246;2023-06-22T12:49:03;40.00;;;34.08;;
53409;SDS011;66590;50.734;4.246;2023-06-22T12:51:39;43.47;;;36.17;;
53409;SDS011;66590;50.734;4.246;2023-06-22T12:54:06;43.38;;;35.75;;
53409;SDS011;66590;50.734;4.246;2023-06-22T12:56:35;42.60;;;36.00;;
53409;SDS011;66590;50.734;4.246;2023-06-22T12:59:03;44.70;;;39.05;;
53409;SDS011;66590;50.734;4.246;2023-06-22T13:01:31;43.47;;;38.45;;
53409;SDS011;66590;50.734;4.246;2023-06-22T13:03:58;44.95;;;40.05;;
53409;SDS011;66590;50.734;4.246;2023-06-22T13:06:25;49.90;;;42.67;;
53409;SDS011;66590;50.734;4.246;2023-06-22T13:08:53;52.20;;;44.42;;
53409;SDS011;66590;50.734;4.246;2023-06-22T13:11:23;53.45;;;45.42;;
53409;SDS011;66590;50.734;4.246;2023-06-22T13:13:51;53.88;;;45.00;;
53409;SDS011;66590;50.734;4.246;2023-06-22T13:16:18;53.10;;;44.55;;
53409;SDS011;66590;50.734;4.246;2023-06-22T13:18:45;58.20;;;47.42;;
53409;SDS011;66590;50.734;4.246;2023-06-22T13:21:12;60.45;;;49.97;;
53409;SDS011;66590;50.734;4.246;2023-06-22T13:23:39;57.17;;;47.30;;
53409;SDS011;66590;50.734;4.246;2023-06-22T13:26:07;58.50;;;47.58;;
53409;SDS011;66590;50.734;4.246;2023-06-22T13:28:34;64.50;;;49.67;;
53409;SDS011;66590;50.734;4.246;2023-06-22T13:31:02;59.38;;;47.97;;
53409;SDS011;66590;50.734;4.246;2023-06-22T13:33:29;56.17;;;45.40;;
53409;SDS011;66590;50.734;4.246;2023-06-22T13:35:56;57.53;;;44.78;;
53409;SDS011;66590;50.734;4.246;2023-06-22T13:38:23;59.08;;;47.25;;
53409;SDS011;66590;50.734;4.246;2023-06-22T13:40:50;54.25;;;44.42;;
53409;SDS011;66590;50.734;4.246;2023-06-22T13:43:18;53.88;;;45.30;;
53409;SDS011;66590;50.734;4.246;2023-06-22T13:45:45;57.60;;;44.47;;
53409;SDS011;66590;50.734;4.246;2023-06-22T13:48:13;50.00;;;42.58;;
53409;SDS011;66590;50.734;4.246;2023-06-22T13:50:40;51.70;;;43.13;;
53409;SDS011;66590;50.734;4.246;2023-06-22T13:53:07;55.05;;;44.25;;
53409;SDS011;66590;50.734;4.246;2023-06-22T13:55:34;46.60;;;40.35;;
53409;SDS011;66590;50.734;4.246;2023-06-22T13:58:02;49.88;;;42.78;;
53409;SDS011;66590;50.734;4.246;2023-06-22T14:00:29;52.30;;;44.17;;
53409;SDS011;66590;50.734;4.246;2023-06-22T14:02:56;48.05;;;41.42;;
53409;SDS011;66590;50.734;4.246;2023-06-22T14:05:25;50.05;;;42.10;;
53409;SDS011;66590;50.734;4.246;2023-06-22T14:07:52;47.03;;;40.65;;
53409;SDS011;66590;50.734;4.246;2023-06-22T14:10:19;44.67;;;39.60;;
53409;SDS011;66590;50.734;4.246;2023-06-22T14:12:46;46.08;;;40.03;;
53409;SDS011;66590;50.734;4.246;2023-06-22T14:15:13;42.80;;;37.58;;
53409;SDS011;66590;50.734;4.246;2023-06-22T14:17:40;44.47;;;39.25;;
53409;SDS011;66590;50.734;4.246;2023-06-22T14:20:07;45.35;;;40.45;;
53409;SDS011;66590;50.734;4.246;2023-06-22T14:22:36;47.67;;;42.45;;
53409;SDS011;66590;50.734;4.246;2023-06-22T14:25:04;45.67;;;40.72;;
53409;SDS011;66590;50.734;4.246;2023-06-22T14:27:32;47.15;;;39.90;;
53409;SDS011;66590;50.734;4.246;2023-06-22T14:29:59;47.65;;;42.53;;
53409;SDS011;66590;50.734;4.246;2023-06-22T14:32:27;43.88;;;39.10;;
53409;SDS011;66590;50.734;4.246;2023-06-22T14:34:54;43.80;;;38.03;;
53409;SDS011;66590;50.734;4.246;2023-06-22T14:37:21;41.55;;;37.08;;